»·PEaware :: N210AR NV11-KTOA

N210AR :: NV11-KTOA

FLIGHT INFORMATION

Flight Status: Arrived
Operator: Privately registered:
United States
More flights under this callsign
Pilot: Max S. (16657)
Aircraft: CESSNA 172 SKYHAWK
(C172)
More flights by this aircraft type
Origin: NV11 Yucca Airstrip
United States
Destination: KTOA Zamperini
United States
More flights between these airports :: More routes between these airports
Route:
File this flight plan on PilotEdge
Remarks: ALPHABET CHALLENGE
Altitude:
(Current/Filed)
8,500ft
Speed:
(Current/Filed)
110kts
Departed: 21-Dec-19 08:51 AM
Arrived: 21-Dec-19 11:44 AM
Distance/Time
Traveled:
220nm/2:53
Distance/Time
To Go:
Arrived

Flight Plot

Page will automatically refresh every two minutes.


Map Options




Map Legend


Flown Route
Filed Route
Departure Airport
Arrival Airport
Navaid (VOR, NDB)
Fix

Horizontal Profiles

Position Reports

Time Latitude Longitude Heading Altitude Ground
Speed
21-Dec-19 08:49 36.942222 -116.036401 49 3924ft 0kts
21-Dec-19 08:49 36.942363 -116.036165 49 3924ft 6kts
21-Dec-19 08:50 36.932857 -116.028727 148 4137ft 64kts
21-Dec-19 08:51 36.929634 -116.020398 328 4652ft 79kts
21-Dec-19 08:52 36.951163 -116.034729 328 4671ft 87kts
21-Dec-19 08:53 36.942004 -116.039177 135 4557ft 79kts
21-Dec-19 08:54 36.925098 -116.020240 150 4955ft 75kts
21-Dec-19 08:55 36.937382 -116.024292 328 5028ft 86kts
21-Dec-19 08:56 36.942535 -116.042093 229 5457ft 77kts
21-Dec-19 08:57 36.927542 -116.060399 215 6126ft 78kts
21-Dec-19 08:58 36.911891 -116.076288 231 6811ft 68kts
21-Dec-19 08:59 36.898624 -116.092680 222 7423ft 64kts
21-Dec-19 09:00 36.885192 -116.107345 220 7963ft 65kts
21-Dec-19 09:01 36.871002 -116.120616 223 8488ft 63kts
21-Dec-19 09:02 36.856598 -116.137687 220 8717ft 96kts
21-Dec-19 09:03 36.828596 -116.153292 206 8708ft 115kts
21-Dec-19 09:04 36.799341 -116.168772 206 8708ft 113kts
21-Dec-19 09:05 36.770349 -116.184114 207 8708ft 113kts
21-Dec-19 09:06 36.741397 -116.199466 207 8708ft 113kts
21-Dec-19 09:07 36.730032 -116.205506 207 8708ft 113kts
21-Dec-19 09:08 36.698730 -116.212712 191 8707ft 116kts
21-Dec-19 09:09 36.666650 -116.217074 191 8707ft 116kts
21-Dec-19 09:10 36.636765 -116.226937 202 8709ft 113kts
21-Dec-19 09:11 36.612719 -116.250856 226 8707ft 110kts
21-Dec-19 09:12 36.591203 -116.278018 228 8707ft 110kts
21-Dec-19 09:13 36.570313 -116.305779 229 8707ft 110kts
21-Dec-19 09:14 36.549525 -116.333733 229 8707ft 110kts
21-Dec-19 09:15 36.528789 -116.361748 229 8707ft 110kts
21-Dec-19 09:16 36.508079 -116.389711 229 8707ft 110kts
21-Dec-19 09:17 36.492697 -116.410479 229 8707ft 110kts
21-Dec-19 09:18 36.488509 -116.416135 229 8707ft 110kts
21-Dec-19 09:19 36.475236 -116.434100 229 8707ft 110kts
21-Dec-19 09:20 36.454499 -116.462037 229 8707ft 110kts
21-Dec-19 09:21 36.436663 -116.486101 229 8707ft 110kts
21-Dec-19 09:22 36.416894 -116.512789 229 8706ft 110kts
21-Dec-19 09:23 36.396114 -116.540769 229 8711ft 110kts
21-Dec-19 09:24 36.375353 -116.568679 229 8715ft 110kts
21-Dec-19 09:25 36.354593 -116.596539 229 8715ft 110kts
21-Dec-19 09:26 36.333797 -116.624489 229 8715ft 110kts
21-Dec-19 09:27 36.313256 -116.652055 229 8715ft 110kts
21-Dec-19 09:28 36.292543 -116.679810 229 8713ft 109kts
21-Dec-19 09:29 36.271830 -116.707459 229 8709ft 109kts
21-Dec-19 09:30 36.251207 -116.735091 228 8706ft 109kts
21-Dec-19 09:31 36.225612 -116.755771 212 8703ft 110kts
21-Dec-19 09:32 36.198907 -116.774578 213 8701ft 110kts
21-Dec-19 09:33 36.180703 -116.787383 212 8700ft 110kts
21-Dec-19 09:34 36.154010 -116.806188 213 8699ft 110kts
21-Dec-19 09:35 36.141503 -116.815038 213 8699ft 110kts
21-Dec-19 09:36 36.114902 -116.833852 212 8699ft 110kts
21-Dec-19 09:37 36.088201 -116.852725 212 8699ft 110kts
21-Dec-19 09:38 36.061834 -116.871904 219 8698ft 109kts
21-Dec-19 09:39 36.038076 -116.895306 221 8699ft 109kts
21-Dec-19 09:40 36.014560 -116.919048 226 8698ft 108kts
21-Dec-19 09:41 35.994994 -116.947342 236 8698ft 108kts
21-Dec-19 09:42 35.979159 -116.978846 239 8698ft 108kts
21-Dec-19 09:43 35.963828 -117.010668 239 8698ft 108kts
21-Dec-19 09:44 35.948504 -117.042519 239 8698ft 108kts
21-Dec-19 09:45 35.933121 -117.074449 239 8698ft 108kts
21-Dec-19 09:46 35.917721 -117.106385 239 8698ft 108kts
21-Dec-19 09:47 35.902311 -117.138317 239 8697ft 108kts
21-Dec-19 09:48 35.887094 -117.169831 238 8814ft 102kts
21-Dec-19 09:49 35.871724 -117.201587 239 8699ft 108kts
21-Dec-19 09:50 35.856275 -117.233492 239 8699ft 108kts
21-Dec-19 09:51 35.840836 -117.265382 239 8698ft 108kts
21-Dec-19 09:52 35.825470 -117.297179 239 8698ft 108kts
21-Dec-19 09:53 35.805046 -117.324579 221 8699ft 109kts
21-Dec-19 09:54 35.776831 -117.339868 205 8698ft 111kts
21-Dec-19 09:55 35.746870 -117.348916 194 8698ft 113kts
21-Dec-19 09:56 35.715610 -117.355239 194 8698ft 113kts
21-Dec-19 09:57 35.684378 -117.361614 194 8698ft 113kts
21-Dec-19 09:58 35.654625 -117.372424 214 8697ft 110kts
21-Dec-19 09:59 35.635607 -117.399299 259 8696ft 108kts
21-Dec-19 10:00 35.632618 -117.436271 262 8698ft 108kts
21-Dec-19 10:01 35.625427 -117.471928 242 8698ft 108kts
21-Dec-19 10:02 35.608430 -117.502477 233 8698ft 108kts
21-Dec-19 10:03 35.590054 -117.531823 233 8698ft 108kts
21-Dec-19 10:04 35.571696 -117.561158 233 8697ft 108kts
21-Dec-19 10:05 35.551062 -117.588036 217 8698ft 110kts
21-Dec-19 10:06 35.524833 -117.607579 213 8697ft 110kts
21-Dec-19 10:07 35.496717 -117.623231 204 8697ft 112kts
21-Dec-19 10:08 35.467411 -117.636060 203 8697ft 112kts
21-Dec-19 10:09 35.438124 -117.648895 203 8697ft 112kts
21-Dec-19 10:10 35.411381 -117.666391 219 8699ft 109kts
21-Dec-19 10:11 35.388774 -117.691306 226 8699ft 109kts
21-Dec-19 10:12 35.377446 -117.724231 246 8700ft 108kts
21-Dec-19 10:13 35.360099 -117.754275 230 8699ft 108kts
21-Dec-19 10:14 35.339829 -117.781965 229 8698ft 109kts
21-Dec-19 10:15 35.319420 -117.809465 229 8697ft 109kts
21-Dec-19 10:16 35.298945 -117.836981 229 8696ft 109kts
21-Dec-19 10:17 35.278416 -117.864544 229 8694ft 110kts
21-Dec-19 10:18 35.257780 -117.892229 229 8692ft 110kts
21-Dec-19 10:19 35.237104 -117.919948 229 8691ft 110kts
21-Dec-19 10:20 35.216342 -117.947753 229 8690ft 110kts
21-Dec-19 10:21 35.195562 -117.975562 229 8689ft 110kts
21-Dec-19 10:22 35.184578 -117.990255 229 8689ft 110kts
21-Dec-19 10:23 35.169426 -118.010515 229 8689ft 110kts
21-Dec-19 10:24 35.152756 -118.032751 230 8689ft 104kts
21-Dec-19 10:25 35.133047 -118.059065 230 8689ft 105kts
21-Dec-19 10:26 35.113322 -118.085373 230 8688ft 105kts
21-Dec-19 10:27 35.092461 -118.113217 217 8688ft 123kts
21-Dec-19 10:28 35.069344 -118.144069 217 8682ft 122kts
21-Dec-19 10:29 35.045084 -118.171148 204 8678ft 115kts
21-Dec-19 10:30 35.018828 -118.193266 204 8677ft 115kts
21-Dec-19 10:31 34.992416 -118.215613 204 8677ft 115kts
21-Dec-19 10:32 34.965539 -118.235284 170 8683ft 105kts
21-Dec-19 10:33 34.935978 -118.243181 186 8683ft 112kts
21-Dec-19 10:34 34.905944 -118.253868 185 8688ft 113kts
21-Dec-19 10:35 34.877946 -118.263380 202 8694ft 104kts
21-Dec-19 10:36 34.849952 -118.273201 202 8695ft 105kts
21-Dec-19 10:37 34.821801 -118.282939 202 8696ft 105kts
21-Dec-19 10:38 34.793531 -118.292673 202 8697ft 105kts
21-Dec-19 10:39 34.765197 -118.302410 202 8697ft 105kts
21-Dec-19 10:40 34.736965 -118.312101 202 8698ft 105kts
21-Dec-19 10:42 34.708602 -118.321829 202 8698ft 105kts
21-Dec-19 10:43 34.680260 -118.331471 201 8697ft 106kts
21-Dec-19 10:44 34.651871 -118.340678 202 8695ft 105kts
21-Dec-19 10:45 34.623621 -118.350244 202 8692ft 105kts
21-Dec-19 10:46 34.595411 -118.359864 202 8643ft 107kts
21-Dec-19 10:47 34.566715 -118.369692 202 8130ft 107kts
21-Dec-19 10:48 34.537895 -118.379534 203 7619ft 108kts
21-Dec-19 10:49 34.508782 -118.389460 202 7108ft 109kts
21-Dec-19 10:50 34.479574 -118.399391 202 6683ft 107kts
21-Dec-19 10:51 34.450569 -118.409238 202 6679ft 108kts
21-Dec-19 10:52 34.421612 -118.419080 202 6669ft 107kts
21-Dec-19 10:53 34.392865 -118.428846 202 6660ft 107kts
21-Dec-19 10:54 34.364113 -118.438611 202 6655ft 107kts
21-Dec-19 10:55 34.340094 -118.446762 202 6651ft 108kts
21-Dec-19 10:56 34.314362 -118.455490 202 6647ft 109kts
21-Dec-19 10:57 34.293149 -118.462683 202 6643ft 109kts
21-Dec-19 10:58 34.271851 -118.469899 202 6639ft 110kts
21-Dec-19 10:59 34.250587 -118.477101 202 6636ft 110kts
21-Dec-19 11:00 34.230814 -118.483798 203 6400ft 113kts
21-Dec-19 11:01 34.210956 -118.489785 190 6066ft 117kts
21-Dec-19 11:02 34.190773 -118.488647 182 5754ft 120kts
21-Dec-19 11:03 34.169420 -118.486533 166 5635ft 115kts
21-Dec-19 11:03 34.153188 -118.484569 164 5997ft 103kts
21-Dec-19 11:05 34.131735 -118.482070 163 6552ft 93kts
21-Dec-19 11:06 34.113265 -118.479848 165 6630ft 110kts
21-Dec-19 11:06 34.096226 -118.477627 160 6648ft 110kts
21-Dec-19 11:08 34.075219 -118.472157 158 6646ft 109kts
21-Dec-19 11:08 34.060463 -118.468106 158 6646ft 109kts
21-Dec-19 11:09 34.042817 -118.463236 158 6646ft 108kts
21-Dec-19 11:11 34.022251 -118.457556 158 6645ft 108kts
21-Dec-19 11:11 34.007360 -118.453444 159 6645ft 108kts
21-Dec-19 11:12 33.990277 -118.448729 159 6644ft 108kts
21-Dec-19 11:13 33.973942 -118.444221 159 6644ft 107kts
21-Dec-19 11:14 33.954382 -118.438827 159 6643ft 107kts
21-Dec-19 11:15 33.935089 -118.432936 147 6644ft 104kts
21-Dec-19 11:16 33.919527 -118.420955 140 6642ft 103kts
21-Dec-19 11:17 33.904491 -118.408070 139 6642ft 103kts
21-Dec-19 11:18 33.889936 -118.395417 138 6644ft 104kts
21-Dec-19 11:19 33.873960 -118.381500 138 6644ft 104kts
21-Dec-19 11:20 33.857714 -118.367345 138 6643ft 105kts
21-Dec-19 11:21 33.840506 -118.352358 138 6643ft 105kts
21-Dec-19 11:22 33.821942 -118.336199 137 6643ft 106kts
21-Dec-19 11:23 33.800495 -118.317555 151 6642ft 126kts
21-Dec-19 11:24 33.777434 -118.297557 151 6647ft 126kts
21-Dec-19 11:25 33.753301 -118.276829 162 6558ft 125kts
21-Dec-19 11:26 33.721070 -118.249448 149 5768ft 127kts
21-Dec-19 11:27 33.673784 -118.210787 149 4615ft 125kts
21-Dec-19 11:28 33.620614 -118.183974 235 3375ft 105kts
21-Dec-19 11:29 33.649267 -118.197686 335 2316ft 84kts
21-Dec-19 11:30 33.672029 -118.211878 333 2192ft 84kts
21-Dec-19 11:31 33.691089 -118.226129 330 2030ft 85kts
21-Dec-19 11:32 33.706719 -118.239522 325 1905ft 85kts
21-Dec-19 11:33 33.720325 -118.251395 326 1896ft 84kts
21-Dec-19 11:34 33.734060 -118.264971 329 1611ft 107kts
21-Dec-19 11:35 33.746871 -118.274117 331 1251ft 83kts
21-Dec-19 11:36 33.758433 -118.282996 326 826ft 75kts
21-Dec-19 11:37 33.768245 -118.291649 321 624ft 81kts
21-Dec-19 11:38 33.776378 -118.299477 318 689ft 67kts
21-Dec-19 11:39 33.782206 -118.308992 315 847ft 69kts
21-Dec-19 11:40 33.789464 -118.319872 313 748ft 59kts
21-Dec-19 11:41 33.796585 -118.328760 314 299ft 70kts
21-Dec-19 11:42 33.802951 -118.337941 306 98ft 41kts
21-Dec-19 11:43 33.805768 -118.343478 289 98ft 18kts
21-Dec-19 11:44 33.805858 -118.343712 290 98ft 5kts
21-Dec-19 11:45 33.804470 -118.344211 130 98ft 18kts
21-Dec-19 11:46 33.802209 -118.340809 129 98ft 21kts
21-Dec-19 11:47 33.800452 -118.339613 262 98ft 1kts
21-Dec-19 11:48 33.800922 -118.340360 36 98ft 2kts
21-Dec-19 11:49 33.800936 -118.340348 36 98ft 0kts

Navigation Log

Ident Type
Flight plan parsing failed, navigation log unavailable